createdAt,value
2019-04-04T00:02:07.355Z,25.10
2019-04-04T00:04:42.792Z,25.10
2019-04-04T00:07:14.769Z,25.20
2019-04-04T00:09:49.512Z,25.30
2019-04-04T00:12:22.914Z,25.30
2019-04-04T00:14:56.951Z,25.30
2019-04-04T00:17:28.928Z,25.30
2019-04-04T00:20:03.999Z,25.40
2019-04-04T00:22:37.283Z,25.40
2019-04-04T00:25:11.618Z,25.40
2019-04-04T00:27:45.464Z,25.60
2019-04-04T00:30:18.929Z,25.60
2019-04-04T00:32:52.731Z,25.60
2019-04-04T00:35:25.556Z,25.70
2019-04-04T00:37:59.355Z,25.80
2019-04-04T00:40:40.050Z,25.90
2019-04-04T00:43:13.199Z,26.00
2019-04-04T00:45:46.431Z,26.00
2019-04-04T00:48:19.684Z,26.10
2019-04-04T00:50:53.190Z,26.20
2019-04-04T00:53:26.459Z,26.20
2019-04-04T00:55:59.487Z,26.30
2019-04-04T00:58:32.935Z,26.40
2019-04-04T01:01:06.095Z,26.40
2019-04-04T01:03:42.520Z,26.40
2019-04-04T01:06:18.955Z,26.40
2019-04-04T01:08:52.340Z,26.50
2019-04-04T01:11:25.675Z,26.50
2019-04-04T01:13:59.054Z,26.50
2019-04-04T01:16:33.351Z,26.60
2019-04-04T01:19:05.697Z,26.60
2019-04-04T01:21:39.578Z,26.60
2019-04-04T01:24:11.366Z,26.60
2019-04-04T01:26:44.897Z,26.70
2019-04-04T01:29:18.318Z,26.70
2019-04-04T01:31:51.586Z,26.80
2019-04-04T01:34:25.958Z,26.80
2019-04-04T01:36:59.431Z,26.90
2019-04-04T01:39:35.370Z,27.00
2019-04-04T01:42:08.397Z,27.10
2019-04-04T01:44:42.152Z,27.20
2019-04-04T01:47:16.911Z,27.20
2019-04-04T01:49:49.923Z,27.30
2019-04-04T01:52:27.862Z,27.40
2019-04-04T01:54:58.666Z,27.50
2019-04-04T01:57:34.242Z,27.50
2019-04-04T02:00:08.422Z,27.60
2019-04-04T02:02:43.778Z,27.70
2019-04-04T02:05:17.429Z,27.80
2019-04-04T02:07:51.053Z,27.90
2019-04-04T02:10:26.820Z,28.00
2019-04-04T02:12:59.149Z,28.00
2019-04-04T02:15:32.410Z,28.10
2019-04-04T02:18:08.187Z,28.10
2019-04-04T02:20:40.223Z,28.20
2019-04-04T02:23:12.589Z,28.30
2019-04-04T02:25:45.841Z,28.40
2019-04-04T02:28:25.397Z,28.50
2019-04-04T02:30:59.007Z,28.60
2019-04-04T02:33:33.234Z,28.60
2019-04-04T02:36:10.355Z,28.60
2019-04-04T02:38:43.752Z,28.70
2019-04-04T02:41:17.479Z,28.80
2019-04-04T02:43:53.003Z,28.90
2019-04-04T02:46:26.370Z,28.90
2019-04-04T02:48:59.468Z,29.00
2019-04-04T02:51:33.741Z,29.10
2019-04-04T02:54:09.296Z,29.10
2019-04-04T02:56:44.907Z,29.20
2019-04-04T02:59:21.483Z,29.20
2019-04-04T03:01:52.904Z,29.30
2019-04-04T03:04:29.867Z,29.40
2019-04-04T03:07:02.222Z,29.40
2019-04-04T03:09:37.002Z,29.40
2019-04-04T03:12:10.268Z,29.40
2019-04-04T03:14:44.577Z,29.40
2019-04-04T03:17:17.941Z,29.50
2019-04-04T03:19:51.082Z,29.60
2019-04-04T03:22:24.587Z,29.70
2019-04-04T03:24:58.937Z,29.80
2019-04-04T03:27:35.146Z,29.80
2019-04-04T03:30:14.618Z,29.90
2019-04-04T03:32:54.075Z,29.90
2019-04-04T03:35:28.900Z,30.00
2019-04-04T03:38:01.033Z,30.20
2019-04-04T03:40:34.161Z,30.40
2019-04-04T03:43:08.351Z,30.60
2019-04-04T03:45:41.862Z,30.60
2019-04-04T03:48:21.315Z,30.60
2019-04-04T03:50:56.750Z,30.70
2019-04-04T03:53:26.849Z,30.90
2019-04-04T03:56:01.225Z,30.90
2019-04-04T03:58:35.608Z,30.90
2019-04-04T04:01:11.988Z,30.80
2019-04-04T04:03:45.612Z,30.80
2019-04-04T04:06:18.696Z,30.70
2019-04-04T04:08:54.858Z,30.80
2019-04-04T04:11:26.509Z,30.90
2019-04-04T04:14:01.981Z,31.00
2019-04-04T04:16:36.014Z,31.00
2019-04-04T04:19:08.464Z,31.10
2019-04-04T04:21:42.874Z,31.10
2019-04-04T04:24:15.438Z,31.10
2019-04-04T04:26:52.075Z,31.10
2019-04-04T04:29:29.498Z,31.20
2019-04-04T04:32:02.332Z,31.40
2019-04-04T04:34:39.319Z,31.60
2019-04-04T04:37:13.122Z,31.80
2019-04-04T04:39:53.767Z,31.90
2019-04-04T04:42:27.520Z,32.00
2019-04-04T04:45:57.944Z,32.00
2019-04-04T04:49:23.116Z,32.10
2019-04-04T04:51:54.756Z,32.30
2019-04-04T04:54:27.795Z,32.50
2019-04-04T04:57:04.088Z,32.70
2019-04-04T04:59:41.094Z,33.00
2019-04-04T05:02:16.870Z,33.20
2019-04-04T05:04:50.367Z,33.30
2019-04-04T05:10:19.421Z,33.40
2019-04-04T05:12:53.794Z,33.30
2019-04-04T05:15:25.842Z,33.30
2019-04-04T05:17:59.271Z,33.40
2019-04-04T05:20:32.878Z,33.50
2019-04-04T05:23:11.217Z,33.60
2019-04-04T05:25:53.480Z,33.70
2019-04-04T05:28:21.598Z,33.70
2019-04-04T05:30:55.212Z,33.70
2019-04-04T05:33:31.451Z,33.80
2019-04-04T05:36:04.876Z,33.90
2019-04-04T05:38:39.251Z,34.10
2019-04-04T05:41:16.533Z,34.10
2019-04-04T05:43:49.547Z,34.20
2019-04-04T05:46:22.837Z,34.20
2019-04-04T05:49:00.725Z,34.20
2019-04-04T05:51:48.442Z,34.10
2019-04-04T05:54:21.327Z,34.10
2019-04-04T05:56:54.584Z,34.20
2019-04-04T05:59:28.074Z,34.40
2019-04-04T06:02:02.558Z,34.60
2019-04-04T06:04:36.015Z,34.80
2019-04-04T06:07:08.084Z,34.90
2019-04-04T06:09:46.139Z,35.10
2019-04-04T06:12:19.313Z,35.20
2019-04-04T06:14:52.880Z,35.30
2019-04-04T06:17:27.036Z,35.40
2019-04-04T06:20:02.770Z,35.60
2019-04-04T06:22:36.191Z,35.60
2019-04-04T06:25:10.891Z,35.40
2019-04-04T06:27:45.962Z,35.30
2019-04-04T06:30:20.168Z,35.30
2019-04-04T06:32:55.816Z,35.20
2019-04-04T06:38:22.964Z,35.30
2019-04-04T06:40:58.871Z,35.20
2019-04-04T06:43:34.495Z,35.20
2019-04-04T06:46:09.680Z,35.20
2019-04-04T06:48:41.853Z,35.30
2019-04-04T06:51:17.550Z,35.40
2019-04-04T06:53:53.752Z,35.60
2019-04-04T06:56:27.927Z,35.70
2019-04-04T06:59:01.685Z,35.60
2019-04-04T07:01:35.086Z,35.60
2019-04-04T07:04:13.372Z,35.60
2019-04-04T07:06:49.699Z,35.50
2019-04-04T07:09:20.773Z,35.50
2019-04-04T07:11:54.823Z,35.60
2019-04-04T07:14:31.567Z,35.70
2019-04-04T07:17:02.806Z,35.70
2019-04-04T07:19:35.437Z,35.70
2019-04-04T07:22:11.369Z,35.60
2019-04-04T07:24:44.753Z,35.50
2019-04-04T07:27:18.326Z,35.40
2019-04-04T07:29:51.929Z,35.50
2019-04-04T07:32:29.334Z,35.50
2019-04-04T07:35:02.534Z,35.60
2019-04-04T07:37:35.772Z,35.60
2019-04-04T07:40:10.527Z,35.60
2019-04-04T07:42:47.052Z,35.60
2019-04-04T07:45:18.341Z,35.50
2019-04-04T07:47:53.717Z,35.30
2019-04-04T07:50:27.102Z,35.20
2019-04-04T07:53:04.075Z,35.10
2019-04-04T07:55:37.435Z,35.00
2019-04-04T07:58:11.484Z,34.80
2019-04-04T08:00:45.015Z,34.70
2019-04-04T08:03:19.113Z,34.70
2019-04-04T08:05:52.809Z,34.80
2019-04-04T08:08:26.184Z,34.90
2019-04-04T08:11:01.932Z,35.10
2019-04-04T08:13:35.588Z,35.20
2019-04-04T08:16:09.326Z,35.30
2019-04-04T08:18:41.489Z,35.50
2019-04-04T08:21:13.402Z,35.60
2019-04-04T08:23:47.016Z,35.80
2019-04-04T08:26:22.878Z,35.90
2019-04-04T08:28:56.013Z,36.00
2019-04-04T08:31:31.640Z,36.00
2019-04-04T08:34:06.099Z,35.80
2019-04-04T08:36:39.277Z,35.80
2019-04-04T08:39:12.518Z,35.80
2019-04-04T08:41:45.761Z,35.80
2019-04-04T08:44:20.067Z,35.80
2019-04-04T08:46:51.841Z,35.80
2019-04-04T08:49:25.228Z,35.70
2019-04-04T08:51:59.987Z,35.70
2019-04-04T08:54:35.542Z,35.60
2019-04-04T08:57:09.592Z,35.60
2019-04-04T08:59:41.806Z,35.60
2019-04-04T09:02:20.727Z,35.60
2019-04-04T09:07:48.773Z,35.60
2019-04-04T09:10:22.111Z,35.50
2019-04-04T09:12:57.522Z,35.40
2019-04-04T09:15:31.831Z,35.30
2019-04-04T09:18:05.409Z,35.30
2019-04-04T09:20:40.978Z,35.30
2019-04-04T09:23:19.644Z,35.20
2019-04-04T09:26:04.697Z,35.20
2019-04-04T09:28:25.990Z,35.20
2019-04-04T09:30:59.125Z,35.20
2019-04-04T09:33:33.292Z,35.10
2019-04-04T09:36:06.481Z,35.10
2019-04-04T09:38:39.731Z,35.00
2019-04-04T09:41:19.426Z,35.00
2019-04-04T09:43:52.797Z,34.90
2019-04-04T09:46:26.138Z,34.80
2019-04-04T09:48:59.641Z,34.80
2019-04-04T09:51:34.885Z,34.70
2019-04-04T09:54:08.455Z,34.60
2019-04-04T10:05:38.427Z,34.30
2019-04-04T10:08:14.386Z,34.20
2019-04-04T10:10:52.307Z,34.20
2019-04-04T10:13:29.049Z,34.20
2019-04-04T10:16:02.287Z,34.10
2019-04-04T10:18:38.243Z,34.00
2019-04-04T10:21:12.495Z,34.00
2019-04-04T10:23:44.951Z,33.90
2019-04-04T10:26:18.233Z,33.80
2019-04-04T10:28:51.850Z,33.80
2019-04-04T10:31:23.877Z,33.70
2019-04-04T10:33:57.230Z,33.70
2019-04-04T10:36:30.217Z,33.70
2019-04-04T10:39:06.840Z,33.60
2019-04-04T10:41:42.731Z,33.60
2019-04-04T10:44:16.173Z,33.60
2019-04-04T10:46:49.430Z,33.60
2019-04-04T10:49:22.797Z,33.50
2019-04-04T10:51:55.889Z,33.50
2019-04-04T10:54:29.231Z,33.50
2019-04-04T10:57:03.424Z,33.40
2019-04-04T10:59:35.414Z,33.30
2019-04-04T11:02:08.851Z,33.30
2019-04-04T11:04:40.949Z,33.20
2019-04-04T11:07:13.844Z,33.20
2019-04-04T11:09:47.333Z,33.10
2019-04-04T11:12:23.086Z,33.00
2019-04-04T11:14:56.815Z,32.90
2019-04-04T11:17:32.468Z,32.90
2019-04-04T11:20:04.372Z,32.80
2019-04-04T11:22:37.223Z,32.80
2019-04-04T11:25:13.960Z,32.70
2019-04-04T11:27:49.634Z,32.60
2019-04-04T11:30:25.001Z,32.50
2019-04-04T11:32:57.816Z,32.40
2019-04-04T11:35:32.149Z,32.30
2019-04-04T11:38:07.999Z,32.20
2019-04-04T11:40:41.428Z,32.10
2019-04-04T11:43:14.673Z,32.00
2019-04-04T11:45:50.233Z,31.90
2019-04-04T11:48:25.470Z,31.90
2019-04-04T11:50:57.645Z,31.90
2019-04-04T11:53:32.696Z,31.80
2019-04-04T11:56:05.139Z,31.80
2019-04-04T11:58:39.726Z,31.90
2019-04-04T12:01:13.972Z,31.80
2019-04-04T12:03:47.155Z,31.80
2019-04-04T12:06:20.277Z,31.80
2019-04-04T12:08:53.494Z,31.80
2019-04-04T12:11:25.429Z,31.80
2019-04-04T12:13:58.595Z,31.70
2019-04-04T12:16:34.592Z,31.70
2019-04-04T12:19:06.392Z,31.60
2019-04-04T12:21:41.898Z,31.60
2019-04-04T12:24:14.754Z,31.50
2019-04-04T12:26:47.818Z,31.50
2019-04-04T12:29:21.728Z,31.40
2019-04-04T12:31:57.424Z,31.40
2019-04-04T12:34:31.727Z,31.40
2019-04-04T12:37:07.514Z,31.30
2019-04-04T12:39:44.540Z,31.30
2019-04-04T12:42:18.039Z,31.30
2019-04-04T12:44:51.802Z,31.20
2019-04-04T12:47:25.214Z,31.20
2019-04-04T12:49:58.412Z,31.10
2019-04-04T12:52:31.687Z,31.10
2019-04-04T12:55:05.298Z,31.10
2019-04-04T12:57:39.214Z,31.00
2019-04-04T13:00:13.353Z,31.00
2019-04-04T13:02:46.563Z,31.00
2019-04-04T13:05:21.951Z,30.90
2019-04-04T13:07:55.240Z,30.90
2019-04-04T13:10:34.866Z,30.90
2019-04-04T13:13:08.492Z,30.80
2019-04-04T13:15:40.450Z,30.80
2019-04-04T13:18:14.150Z,30.80
2019-04-04T13:20:48.562Z,30.70
2019-04-04T13:23:21.947Z,30.70
2019-04-04T13:26:01.497Z,30.70
2019-04-04T13:28:35.176Z,30.70
2019-04-04T13:31:08.678Z,30.60
2019-04-04T13:33:42.038Z,30.60
2019-04-04T13:36:15.214Z,30.60
2019-04-04T13:38:48.455Z,30.60
2019-04-04T13:41:22.411Z,30.60
2019-04-04T13:43:54.842Z,30.50
2019-04-04T13:46:30.303Z,30.50
2019-04-04T13:49:06.253Z,30.50
2019-04-04T13:51:43.103Z,30.50
2019-04-04T13:54:16.224Z,30.50
2019-04-04T13:56:48.234Z,30.50
2019-04-04T13:59:21.846Z,30.40
2019-04-04T14:01:55.207Z,30.40
2019-04-04T14:04:31.766Z,30.40
2019-04-04T14:07:07.446Z,30.40
2019-04-04T14:09:44.331Z,30.30
2019-04-04T14:12:17.732Z,30.30
2019-04-04T14:14:49.823Z,30.30
2019-04-04T14:17:25.219Z,30.20
2019-04-04T14:20:01.130Z,30.10
2019-04-04T14:22:33.936Z,30.00
2019-04-04T14:25:09.826Z,29.90
2019-04-04T14:27:42.879Z,29.80
2019-04-04T14:30:18.690Z,29.80
2019-04-04T14:32:54.527Z,29.80
2019-04-04T14:35:28.067Z,29.80
2019-04-04T14:38:01.642Z,29.70
2019-04-04T14:40:36.016Z,29.70
2019-04-04T14:43:14.499Z,29.70
2019-04-04T14:45:50.115Z,29.70
2019-04-04T14:48:21.871Z,29.70
2019-04-04T14:50:55.560Z,29.60
2019-04-04T14:53:29.241Z,29.60
2019-04-04T14:56:03.944Z,29.60
2019-04-04T14:58:37.130Z,29.60
2019-04-04T15:01:10.326Z,29.50
2019-04-04T15:03:43.507Z,29.50
2019-04-04T15:06:19.189Z,29.50
2019-04-04T15:08:54.150Z,29.50
2019-04-04T15:11:29.556Z,29.50
2019-04-04T15:14:02.940Z,29.50
2019-04-04T15:16:40.440Z,29.50
2019-04-04T15:19:13.648Z,29.40
2019-04-04T15:21:50.415Z,29.50
2019-04-04T15:24:22.126Z,29.50
2019-04-04T15:26:58.815Z,29.50
2019-04-04T15:29:33.146Z,29.50
2019-04-04T15:32:07.933Z,29.50
2019-04-04T15:34:40.046Z,29.50
2019-04-04T15:37:13.202Z,29.50
2019-04-04T15:39:47.115Z,29.40
2019-04-04T15:42:19.110Z,29.40
2019-04-04T15:44:54.721Z,29.40
2019-04-04T15:47:31.618Z,29.40
2019-04-04T15:50:09.286Z,29.40
2019-04-04T15:52:42.633Z,29.40
2019-04-04T15:55:15.573Z,29.40
2019-04-04T15:57:49.002Z,29.40
2019-04-04T16:00:23.387Z,29.30
2019-04-04T16:02:59.323Z,29.30
2019-04-04T16:05:32.637Z,29.20
2019-04-04T16:08:06.804Z,29.20
2019-04-04T16:10:41.209Z,29.20
2019-04-04T16:13:17.039Z,29.20
2019-04-04T16:15:53.659Z,29.20
2019-04-04T16:18:27.505Z,29.20
2019-04-04T16:21:02.233Z,29.10
2019-04-04T16:23:38.365Z,29.20
2019-04-04T16:26:12.160Z,29.10
2019-04-04T16:28:44.093Z,29.10
2019-04-04T16:31:17.461Z,29.10
2019-04-04T16:33:52.796Z,29.10
2019-04-04T16:36:26.220Z,29.10
2019-04-04T16:39:00.321Z,29.10
2019-04-04T16:41:34.394Z,29.10
2019-04-04T16:44:06.733Z,29.10
2019-04-04T16:46:40.734Z,29.00
2019-04-04T16:49:13.093Z,29.00
2019-04-04T16:51:48.443Z,29.00
2019-04-04T16:54:21.995Z,28.90
2019-04-04T16:56:53.900Z,28.90
2019-04-04T16:59:25.752Z,28.80
2019-04-04T17:01:58.323Z,28.80
2019-04-04T17:04:32.538Z,28.70
2019-04-04T17:07:08.116Z,28.60
2019-04-04T17:09:45.733Z,28.50
2019-04-04T17:12:17.622Z,28.50
2019-04-04T17:14:50.917Z,28.50
2019-04-04T17:17:22.834Z,28.40
2019-04-04T17:19:56.640Z,28.40
2019-04-04T17:22:29.707Z,28.30
2019-04-04T17:25:02.867Z,28.30
2019-04-04T17:27:38.532Z,28.30
2019-04-04T17:30:13.981Z,28.40
2019-04-04T17:32:48.614Z,28.40
2019-04-04T17:35:20.132Z,28.40
2019-04-04T17:37:53.753Z,28.40
2019-04-04T17:40:27.263Z,28.30
2019-04-04T17:43:03.526Z,28.20
2019-04-04T17:45:36.924Z,28.20
2019-04-04T17:48:10.615Z,28.10
2019-04-04T17:50:46.258Z,28.10
2019-04-04T17:53:21.943Z,28.10
2019-04-04T17:55:57.097Z,28.10
2019-04-04T17:58:33.437Z,28.10
2019-04-04T18:01:08.010Z,28.20
2019-04-04T18:03:41.577Z,28.20
2019-04-04T18:06:13.397Z,28.20
2019-04-04T18:08:48.998Z,28.20
2019-04-04T18:11:22.210Z,28.20
2019-04-04T18:13:58.081Z,28.20
2019-04-04T18:16:31.574Z,28.10
2019-04-04T18:19:07.064Z,28.00
2019-04-04T18:21:41.242Z,28.00
2019-04-04T18:24:17.153Z,27.90
2019-04-04T18:26:53.011Z,27.90
2019-04-04T18:29:30.133Z,27.80
2019-04-04T18:32:03.733Z,27.80
2019-04-04T18:34:35.908Z,27.80
2019-04-04T18:37:11.249Z,27.70
2019-04-04T18:39:47.511Z,27.70
2019-04-04T18:42:23.556Z,27.70
2019-04-04T18:45:00.659Z,27.60
2019-04-04T18:47:32.695Z,27.60
2019-04-04T18:50:05.712Z,27.70
2019-04-04T18:52:39.288Z,27.60
2019-04-04T18:55:19.755Z,27.70
2019-04-04T18:57:46.110Z,27.70
2019-04-04T19:00:21.939Z,27.70
2019-04-04T19:02:54.116Z,27.60
2019-04-04T19:05:27.794Z,27.50
2019-04-04T19:08:00.904Z,27.50
2019-04-04T19:10:34.184Z,27.50
2019-04-04T19:13:06.801Z,27.40
2019-04-04T19:15:42.238Z,27.40
2019-04-04T19:18:14.242Z,27.40
2019-04-04T19:20:47.345Z,27.40
2019-04-04T19:23:20.699Z,27.40
2019-04-04T19:25:53.968Z,27.40
2019-04-04T19:28:25.678Z,27.40
2019-04-04T19:30:59.922Z,27.40
2019-04-04T19:33:33.014Z,27.40
2019-04-04T19:36:07.291Z,27.30
2019-04-04T19:38:40.474Z,27.30
2019-04-04T19:41:12.483Z,27.30
2019-04-04T19:43:45.387Z,27.30
2019-04-04T19:46:20.972Z,27.30
2019-04-04T19:48:56.218Z,27.20
2019-04-04T19:51:28.300Z,27.30
2019-04-04T19:54:03.112Z,27.40
2019-04-04T19:56:36.709Z,27.40
2019-04-04T19:59:09.877Z,27.40
2019-04-04T20:01:44.708Z,27.40
2019-04-04T20:04:20.198Z,27.40
2019-04-04T20:06:55.341Z,27.40
2019-04-04T20:09:27.407Z,27.40
2019-04-04T20:12:00.785Z,27.30
2019-04-04T20:14:36.161Z,27.20
2019-04-04T20:17:09.418Z,27.20
2019-04-04T20:19:42.711Z,27.10
2019-04-04T20:22:14.771Z,27.00
2019-04-04T20:24:51.776Z,27.00
2019-04-04T20:27:25.147Z,27.10
2019-04-04T20:29:56.950Z,27.10
2019-04-04T20:32:29.239Z,27.10
2019-04-04T20:35:01.072Z,27.10
2019-04-04T20:37:33.021Z,27.10
2019-04-04T20:40:06.437Z,27.10
2019-04-04T20:42:39.716Z,27.10
2019-04-04T20:45:16.163Z,27.10
2019-04-04T20:47:50.942Z,27.10
2019-04-04T20:50:22.830Z,27.10
2019-04-04T20:52:54.933Z,27.10
2019-04-04T20:55:26.917Z,27.10
2019-04-04T20:57:58.839Z,27.10
2019-04-04T21:00:32.210Z,27.10
2019-04-04T21:03:07.633Z,27.00
2019-04-04T21:05:40.567Z,27.00
2019-04-04T21:08:12.611Z,27.00
2019-04-04T21:10:44.609Z,27.10
2019-04-04T21:13:20.864Z,27.10
2019-04-04T21:15:52.384Z,27.10
2019-04-04T21:18:27.971Z,27.10
2019-04-04T21:21:01.307Z,27.20
2019-04-04T21:23:36.634Z,27.20
2019-04-04T21:26:08.787Z,27.20
2019-04-04T21:28:40.758Z,27.20
2019-04-04T21:31:14.266Z,27.20
2019-04-04T21:33:46.155Z,27.30
2019-04-04T21:36:21.604Z,27.20
2019-04-04T21:38:52.346Z,27.10
2019-04-04T21:41:25.771Z,27.00
2019-04-04T21:44:08.212Z,26.90
2019-04-04T21:46:31.871Z,26.90
2019-04-04T21:49:04.924Z,26.80
2019-04-04T21:51:40.586Z,26.70
2019-04-04T21:54:12.724Z,26.60
2019-04-04T21:56:44.670Z,26.60
2019-04-04T21:59:34.448Z,26.50
2019-04-04T22:02:09.006Z,26.50
2019-04-04T22:04:42.266Z,26.50
2019-04-04T22:07:15.559Z,26.50
2019-04-04T22:09:47.464Z,26.50
2019-04-04T22:15:15.635Z,26.60
2019-04-04T22:17:58.117Z,26.60
2019-04-04T22:20:33.509Z,26.60
2019-04-04T22:23:05.406Z,26.60
2019-04-04T22:25:39.841Z,26.60
2019-04-04T22:28:11.792Z,26.60
2019-04-04T22:30:44.973Z,26.60
2019-04-04T22:33:22.061Z,26.60
2019-04-04T22:35:57.770Z,26.60
2019-04-04T22:38:30.704Z,26.60
2019-04-04T22:41:05.342Z,26.50
2019-04-04T22:43:37.187Z,26.60
2019-04-04T22:46:10.675Z,26.50
2019-04-04T22:48:42.687Z,26.50
2019-04-04T22:51:14.713Z,26.50
2019-04-04T22:53:48.179Z,26.40
2019-04-04T22:56:20.114Z,26.40
2019-04-04T22:58:56.393Z,26.40
2019-04-04T23:01:37.553Z,26.30
2019-04-04T23:04:10.513Z,26.30
2019-04-04T23:06:42.314Z,26.30
2019-04-04T23:09:18.332Z,26.30
2019-04-04T23:11:53.519Z,26.20
2019-04-04T23:14:25.314Z,26.20
2019-04-04T23:17:01.868Z,26.20
2019-04-04T23:19:34.991Z,26.20
2019-04-04T23:22:08.169Z,26.20
2019-04-04T23:24:41.243Z,26.20
2019-04-04T23:27:14.346Z,26.10
2019-04-04T23:29:46.340Z,26.20
2019-04-04T23:32:19.535Z,26.10
2019-04-04T23:34:52.786Z,26.10
2019-04-04T23:37:24.726Z,26.10
2019-04-04T23:39:58.247Z,26.10
2019-04-04T23:42:31.224Z,26.10
2019-04-04T23:45:04.209Z,26.10
2019-04-04T23:47:43.218Z,26.00
2019-04-04T23:50:11.740Z,26.10
2019-04-04T23:52:44.933Z,26.10
2019-04-04T23:55:23.415Z,26.20
2019-04-04T23:57:56.722Z,26.20
